ALM weather

El Alamo Airport
Mexicali, Baja California, Mexico

Public forecast

Using degrees Celsius for public forecast. Weather courtesy of forecast.io.

Closest aviation weather report (METAR) to El Alamo Airport

Closest report is General Rodolfo Sánchez Taboada International Airport, 8.9 nm (16.4 km) NNW. Retrieved 2020/02/20 08:46 UTC (2 hours ago):

MMML 200846Z 03008KT 10SM SKC 17/M05 A3005 RMK SLP176 52007 933

Closest aviation forecast (TAF) to El Alamo Airport

Forecast is more than 12 hours old.

Closest forecast is General Rodolfo Sánchez Taboada International Airport, 8.9 nm (16.4 km) NNW. Retrieved 2020/02/19 18:54 UTC (16 hours ago):

TAF MMML 191649Z 1918/2018 03015KT P6SM SKC BECMG 2002/2003 00000KT FM201500 34010KT P6SM SKC